createdAt,value
2022-08-16T00:00:03.547Z,48.2610
2022-08-16T00:00:20.183Z,48.3300
2022-08-16T00:00:30.471Z,48.3360
2022-08-16T00:00:47.643Z,48.3640
2022-08-16T00:01:03.190Z,48.3700
2022-08-16T00:01:17.696Z,48.2780
2022-08-16T00:01:29.038Z,48.1120
2022-08-16T00:01:45.777Z,48.2610
2022-08-16T00:01:59.846Z,48.1810
2022-08-16T00:02:13.031Z,48.1810
2022-08-16T00:02:24.499Z,48.1750
2022-08-16T00:02:35.674Z,48.0640
2022-08-16T00:02:46.920Z,48.0360
2022-08-16T00:02:58.347Z,48.0360
2022-08-16T00:03:13.364Z,47.9850
2022-08-16T00:03:26.463Z,48.2270
2022-08-16T00:03:38.009Z,48.1100
2022-08-16T00:03:51.816Z,48.1970
2022-08-16T00:04:05.255Z,48.0820
2022-08-16T00:04:16.810Z,48.1380
2022-08-16T00:04:28.485Z,48.0700
2022-08-16T00:04:39.678Z,48.0260
2022-08-16T00:04:51.267Z,48.0380
2022-08-16T00:05:02.479Z,48.0260
2022-08-16T00:05:13.935Z,48.0320
2022-08-16T00:05:25.096Z,48.0200
2022-08-16T00:05:36.168Z,48.0130
2022-08-16T00:05:57.654Z,48.2550
2022-08-16T00:06:10.141Z,48.3520
2022-08-16T00:06:21.255Z,48.1930
2022-08-16T00:06:32.306Z,48.0960
2022-08-16T00:06:44.078Z,48.0840
2022-08-16T00:06:55.286Z,48.0560
2022-08-16T00:07:06.350Z,48.0380
2022-08-16T00:07:17.434Z,48.0260
2022-08-16T00:07:29.128Z,48.0200
2022-08-16T00:07:40.506Z,48.0760
2022-08-16T00:07:56.440Z,48.0380
2022-08-16T00:08:08.567Z,48.2740
2022-08-16T00:08:30.675Z,48.3660
2022-08-16T00:08:42.655Z,48.4010
2022-08-16T00:08:57.084Z,48.3640
2022-08-16T00:09:08.137Z,48.1460
2022-08-16T00:09:22.013Z,48.2090
2022-08-16T00:09:35.869Z,48.1280
2022-08-16T00:09:47.158Z,48.1280
2022-08-16T00:09:58.827Z,48.0560
2022-08-16T00:10:10.115Z,48.0540
2022-08-16T00:10:27.193Z,48.2390
2022-08-16T00:10:39.700Z,48.1870
2022-08-16T00:10:52.529Z,48.1100
2022-08-16T00:11:04.664Z,48.0720
2022-08-16T00:11:16.592Z,47.9970
2022-08-16T00:11:28.036Z,48.0260
2022-08-16T00:11:39.097Z,47.9630
2022-08-16T00:11:52.731Z,47.9510
2022-08-16T00:12:03.989Z,48.0820
2022-08-16T00:12:17.961Z,48.0780
2022-08-16T00:12:29.822Z,48.1360
2022-08-16T00:12:41.678Z,48.0960
2022-08-16T00:12:52.808Z,48.0350
2022-08-16T00:13:05.843Z,48.1100
2022-08-16T00:13:17.045Z,48.0410
2022-08-16T00:13:28.899Z,48.0660
2022-08-16T00:13:41.830Z,48.0070
2022-08-16T00:13:55.687Z,48.1180
2022-08-16T00:14:08.686Z,48.1650
2022-08-16T00:14:19.927Z,48.1460
2022-08-16T00:14:31.002Z,48.0290
2022-08-16T00:14:42.065Z,48.0030
2022-08-16T00:14:56.836Z,48.0410
2022-08-16T00:15:11.523Z,48.1500
2022-08-16T00:15:23.136Z,48.2270
2022-08-16T00:15:52.147Z,48.1220
2022-08-16T00:15:54.395Z,48.3120
2022-08-16T00:17:00.589Z,48.4630
2022-08-16T00:17:05.459Z,48.4280
2022-08-16T00:17:05.987Z,48.3720
2022-08-16T00:17:06.293Z,48.3360
2022-08-16T00:17:16.271Z,48.5050
2022-08-16T00:17:30.636Z,48.4930
2022-08-16T00:17:56.379Z,48.4870
2022-08-16T00:18:04.582Z,48.4500
2022-08-16T00:18:22.266Z,48.4500
2022-08-16T00:18:38.912Z,48.4470
2022-08-16T00:18:50.113Z,48.2670
2022-08-16T00:19:01.197Z,48.1680
2022-08-16T00:19:13.965Z,48.1930
2022-08-16T00:19:25.183Z,48.1240
2022-08-16T00:19:41.856Z,48.2670
2022-08-16T00:19:55.170Z,48.2430
2022-08-16T00:20:06.476Z,48.1930
2022-08-16T00:20:23.467Z,48.3180
2022-08-16T00:20:35.623Z,48.2250
2022-08-16T00:20:47.445Z,48.1180
2022-08-16T00:21:03.689Z,48.2110
2022-08-16T00:21:15.179Z,48.1870
2022-08-16T00:21:26.331Z,48.0560
2022-08-16T00:21:40.399Z,48.1680
2022-08-16T00:21:53.265Z,48.0250
2022-08-16T00:22:12.732Z,48.1800
2022-08-16T00:22:25.134Z,48.2170
2022-08-16T00:22:36.688Z,48.1240
2022-08-16T00:22:53.626Z,48.2230
2022-08-16T00:23:05.199Z,48.0820
2022-08-16T00:23:17.029Z,48.0130
2022-08-16T00:23:34.455Z,47.9450
2022-08-16T00:23:46.454Z,48.1500
2022-08-16T00:23:57.592Z,48.0750
2022-08-16T00:24:12.094Z,47.9630
2022-08-16T00:24:31.374Z,48.0680
2022-08-16T00:24:40.443Z,48.1500
2022-08-16T00:24:55.732Z,48.1900
2022-08-16T00:25:06.915Z,47.9780
2022-08-16T00:25:18.340Z,47.8880
2022-08-16T00:26:33.664Z,47.8700
2022-08-16T00:26:33.856Z,48.0820
2022-08-16T00:26:34.746Z,48.1080
2022-08-16T00:26:35.846Z,48.0250
2022-08-16T00:26:45.186Z,48.1330
2022-08-16T00:26:54.634Z,48.1470
2022-08-16T00:27:06.836Z,47.9980
2022-08-16T00:27:19.699Z,47.9380
2022-08-16T00:27:31.489Z,47.8920
2022-08-16T00:27:42.584Z,47.8170
2022-08-16T00:27:58.497Z,48.0080
2022-08-16T00:28:09.561Z,47.8490
2022-08-16T00:28:22.352Z,47.8590
2022-08-16T00:28:39.299Z,48.0040
2022-08-16T00:28:54.712Z,47.8810
2022-08-16T00:29:06.112Z,47.9680
2022-08-16T00:29:17.300Z,47.8070
2022-08-16T00:29:29.669Z,47.7550
2022-08-16T00:29:41.183Z,47.8230
2022-08-16T00:30:00.504Z,47.7670
2022-08-16T00:30:19.856Z,47.9680
2022-08-16T00:30:29.123Z,48.0590
2022-08-16T00:30:40.740Z,48.0240
2022-08-16T00:30:52.050Z,47.8690
2022-08-16T00:31:04.583Z,47.8470
2022-08-16T00:31:15.637Z,47.7600
2022-08-16T00:31:26.701Z,47.7100
2022-08-16T00:31:47.164Z,47.9440
2022-08-16T00:32:05.975Z,48.0300
2022-08-16T00:32:18.007Z,48.0480
2022-08-16T00:32:32.872Z,47.9210
2022-08-16T00:32:44.129Z,47.9560
2022-08-16T00:32:57.247Z,47.8070
2022-08-16T00:33:08.531Z,47.8410
2022-08-16T00:33:20.690Z,47.8030
2022-08-16T00:33:33.500Z,47.8350
2022-08-16T00:33:50.233Z,47.7290
2022-08-16T00:34:01.635Z,47.9640
2022-08-16T00:34:18.358Z,47.9620
2022-08-16T00:34:52.388Z,47.9500
2022-08-16T00:34:53.156Z,48.0120
2022-08-16T00:35:03.900Z,48.0760
2022-08-16T00:35:21.005Z,48.1510
2022-08-16T00:35:32.071Z,47.9700
2022-08-16T00:35:46.078Z,47.9980
2022-08-16T00:36:00.877Z,48.0360
2022-08-16T00:36:12.649Z,47.9090
2022-08-16T00:36:23.714Z,47.8090
2022-08-16T00:36:35.359Z,47.8130
2022-08-16T00:36:55.730Z,47.9800
2022-08-16T00:37:07.036Z,48.0480
2022-08-16T00:37:18.516Z,47.8310
2022-08-16T00:37:57.374Z,47.9980
2022-08-16T00:37:58.590Z,47.8810
2022-08-16T00:38:40.619Z,48.1510
2022-08-16T00:38:40.638Z,48.0730
2022-08-16T00:38:40.638Z,48.1570
2022-08-16T00:38:52.709Z,48.0700
2022-08-16T00:39:07.266Z,48.0640
2022-08-16T00:39:24.594Z,48.1250
2022-08-16T00:39:35.774Z,47.9960
2022-08-16T00:39:47.428Z,47.8690
2022-08-16T00:39:59.045Z,47.8470
2022-08-16T00:40:33.540Z,47.8230
2022-08-16T00:40:34.909Z,48.0200
2022-08-16T00:40:50.931Z,48.1130
2022-08-16T00:41:01.152Z,48.1250
2022-08-16T00:41:12.351Z,47.9640
2022-08-16T00:41:23.627Z,47.8530
2022-08-16T00:41:38.333Z,47.7970
2022-08-16T00:41:49.683Z,47.9340
2022-08-16T00:42:00.845Z,47.7660
2022-08-16T00:42:11.966Z,47.7140
2022-08-16T00:42:30.595Z,47.6940
2022-08-16T00:42:40.192Z,47.8870
2022-08-16T00:42:54.189Z,47.8250
2022-08-16T00:43:12.078Z,47.8370
2022-08-16T00:43:23.186Z,47.8870
2022-08-16T00:43:42.503Z,47.7390
2022-08-16T00:43:51.286Z,47.8570
2022-08-16T00:44:05.074Z,47.8470
2022-08-16T00:44:16.145Z,47.6760
2022-08-16T00:44:31.829Z,47.7630
2022-08-16T00:44:44.118Z,47.7440
2022-08-16T00:44:57.278Z,47.7080
2022-08-16T00:45:09.516Z,47.6280
2022-08-16T00:45:20.810Z,47.6520
2022-08-16T00:45:36.485Z,47.7890
2022-08-16T00:45:58.165Z,47.6140
2022-08-16T00:46:32.836Z,47.7950
2022-08-16T00:46:34.429Z,47.8710
2022-08-16T00:46:38.547Z,47.8810
2022-08-16T00:47:05.998Z,47.8810
2022-08-16T00:47:12.470Z,47.8830
2022-08-16T00:47:23.514Z,47.6800
2022-08-16T00:47:34.573Z,47.5930
2022-08-16T00:47:48.856Z,47.6480
2022-08-16T00:48:00.817Z,47.6360
2022-08-16T00:48:28.619Z,47.5490
2022-08-16T00:48:31.707Z,47.7600
2022-08-16T00:48:45.808Z,47.8470
2022-08-16T00:48:56.869Z,47.6600
2022-08-16T00:49:17.594Z,47.5950
2022-08-16T00:49:24.877Z,47.7690
2022-08-16T00:49:39.613Z,47.6520
2022-08-16T00:49:56.233Z,47.7940
2022-08-16T00:50:11.567Z,47.8290
2022-08-16T00:50:35.824Z,47.7970
2022-08-16T00:50:40.388Z,47.8150
2022-08-16T00:50:55.429Z,47.7340
2022-08-16T00:51:06.927Z,47.7160
2022-08-16T00:51:19.997Z,47.7040
2022-08-16T00:51:32.153Z,47.6480
2022-08-16T00:51:44.949Z,47.6460
2022-08-16T00:51:56.297Z,47.5790
2022-08-16T00:52:30.022Z,47.8030
2022-08-16T00:52:30.286Z,47.5650
2022-08-16T00:52:45.696Z,47.8870
2022-08-16T00:52:58.966Z,47.9630
2022-08-16T00:53:10.351Z,47.8590
2022-08-16T00:53:21.978Z,47.7600
2022-08-16T00:53:33.041Z,47.6920
2022-08-16T00:53:44.698Z,47.6920
2022-08-16T00:53:55.788Z,47.6860
2022-08-16T00:54:07.329Z,47.6980
2022-08-16T00:54:22.709Z,47.8950
2022-08-16T00:54:35.810Z,47.8770
2022-08-16T00:54:46.927Z,47.7720
2022-08-16T00:54:59.605Z,47.8090
2022-08-16T00:55:10.734Z,47.7220
2022-08-16T00:55:23.102Z,47.7900
2022-08-16T00:55:37.943Z,47.7680
2022-08-16T00:55:49.380Z,47.8870
2022-08-16T00:56:05.123Z,47.8430
2022-08-16T00:56:55.928Z,47.8250
2022-08-16T00:56:57.096Z,47.9920
2022-08-16T00:56:58.593Z,47.9170
2022-08-16T00:57:07.706Z,48.0040
2022-08-16T00:57:24.083Z,47.9610
2022-08-16T00:57:59.205Z,47.8310
2022-08-16T00:57:59.743Z,47.9230
2022-08-16T00:58:13.071Z,47.9610
2022-08-16T00:58:34.345Z,47.9610
2022-08-16T00:58:43.586Z,47.9760
2022-08-16T00:58:54.742Z,47.8280
2022-08-16T00:59:06.891Z,47.7480
2022-08-16T00:59:18.209Z,47.6700
2022-08-16T00:59:29.971Z,47.6880
2022-08-16T00:59:59.089Z,47.7440
2022-08-16T01:00:01.100Z,47.8830
2022-08-16T01:00:12.300Z,47.7720
2022-08-16T01:00:29.359Z,47.9010
2022-08-16T01:00:40.521Z,47.7720
2022-08-16T01:00:54.002Z,47.7040
2022-08-16T01:01:08.616Z,47.8080
2022-08-16T01:01:21.639Z,47.9200
2022-08-16T01:01:33.259Z,47.7650
2022-08-16T01:01:47.533Z,47.7720
2022-08-16T01:01:58.732Z,47.6660
2022-08-16T01:02:30.612Z,47.6420
2022-08-16T01:02:31.607Z,47.7960
2022-08-16T01:02:47.014Z,47.8650
2022-08-16T01:03:00.172Z,47.8890
2022-08-16T01:03:12.573Z,47.6350
2022-08-16T01:03:30.237Z,47.6480
2022-08-16T01:03:41.324Z,47.7600
2022-08-16T01:03:52.988Z,47.6600
2022-08-16T01:04:05.418Z,47.5390
2022-08-16T01:04:29.306Z,47.5590
2022-08-16T01:04:33.682Z,47.7140
2022-08-16T01:05:10.641Z,47.7280
2022-08-16T01:05:11.292Z,47.6230
2022-08-16T01:05:18.748Z,47.7780
2022-08-16T01:05:35.695Z,47.7840
2022-08-16T01:05:46.762Z,47.6230
2022-08-16T01:05:57.855Z,47.5090
2022-08-16T01:06:40.296Z,47.6450
2022-08-16T01:06:40.868Z,47.4730
2022-08-16T01:06:49.330Z,47.6940
2022-08-16T01:07:02.590Z,47.7320
2022-08-16T01:07:17.523Z,47.6600
2022-08-16T01:07:29.297Z,47.6980
2022-08-16T01:07:51.773Z,47.7400
2022-08-16T01:08:19.598Z,47.7780
2022-08-16T01:08:35.142Z,47.7840
2022-08-16T01:08:37.389Z,47.7960
2022-08-16T01:08:51.164Z,47.7100
2022-08-16T01:09:02.340Z,47.4990
2022-08-16T01:09:15.236Z,47.5150
2022-08-16T01:09:33.505Z,47.6140
2022-08-16T01:09:45.216Z,47.6390
2022-08-16T01:09:56.290Z,47.4730
2022-08-16T01:10:16.172Z,47.4690
2022-08-16T01:10:31.374Z,47.6240
2022-08-16T01:10:42.479Z,47.7080
2022-08-16T01:10:54.074Z,47.5770
2022-08-16T01:11:05.182Z,47.4530
2022-08-16T01:11:17.773Z,47.4790
2022-08-16T01:11:31.409Z,47.5590
2022-08-16T01:11:51.704Z,47.4470
2022-08-16T01:11:59.686Z,47.6700
2022-08-16T01:12:10.914Z,47.5650
2022-08-16T01:12:27.858Z,47.7040
2022-08-16T01:12:39.058Z,47.5930
2022-08-16T01:12:50.671Z,47.5310
2022-08-16T01:13:01.814Z,47.4970
2022-08-16T01:13:15.914Z,47.6300
2022-08-16T01:13:28.082Z,47.5730
2022-08-16T01:13:40.254Z,47.5550
2022-08-16T01:13:51.341Z,47.4910
2022-08-16T01:14:04.524Z,47.5530
2022-08-16T01:14:15.860Z,47.4970
2022-08-16T01:14:31.640Z,47.7080
2022-08-16T01:14:43.538Z,47.5590
2022-08-16T01:14:54.993Z,47.5390
2022-08-16T01:15:06.150Z,47.4650
2022-08-16T01:15:18.773Z,47.5130
2022-08-16T01:15:30.307Z,47.4690
2022-08-16T01:15:43.172Z,47.4390
2022-08-16T01:15:54.956Z,47.5490
2022-08-16T01:16:10.122Z,47.4450
2022-08-16T01:16:21.512Z,47.6170
2022-08-16T01:16:36.851Z,47.6390
2022-08-16T01:16:47.913Z,47.4970
2022-08-16T01:17:00.862Z,47.4750
2022-08-16T01:17:12.009Z,47.4250
2022-08-16T01:17:24.445Z,47.4390
2022-08-16T01:17:36.804Z,47.3760
2022-08-16T01:17:55.839Z,47.4630
2022-08-16T01:18:05.967Z,47.5990
2022-08-16T01:18:39.797Z,47.5030
2022-08-16T01:18:40.739Z,47.6200
2022-08-16T01:18:51.183Z,47.6800
2022-08-16T01:19:02.612Z,47.5250
2022-08-16T01:19:13.881Z,47.4450
2022-08-16T01:19:26.563Z,47.4870
2022-08-16T01:19:40.964Z,47.5310
2022-08-16T01:19:52.108Z,47.4250
2022-08-16T01:20:24.175Z,47.5850
2022-08-16T01:20:30.474Z,47.6350
2022-08-16T01:20:41.824Z,47.6660
2022-08-16T01:20:52.979Z,47.4800
2022-08-16T01:21:04.045Z,47.3820
2022-08-16T01:21:15.194Z,47.3320
2022-08-16T01:21:33.670Z,47.3020
2022-08-16T01:21:43.494Z,47.5370
2022-08-16T01:21:55.919Z,47.4990
2022-08-16T01:22:47.551Z,47.6410
2022-08-16T01:22:49.802Z,47.5430
2022-08-16T01:22:50.064Z,47.6650
2022-08-16T01:23:03.825Z,47.6810
2022-08-16T01:23:19.750Z,47.6910
2022-08-16T01:23:57.949Z,47.5360
2022-08-16T01:24:01.036Z,47.6130
2022-08-16T01:24:05.766Z,47.6590
2022-08-16T01:24:52.292Z,47.6910
2022-08-16T01:24:53.722Z,47.6770
2022-08-16T01:24:56.674Z,47.7150
2022-08-16T01:25:07.815Z,47.5360
2022-08-16T01:25:18.969Z,47.4240
2022-08-16T01:25:34.202Z,47.4900
2022-08-16T01:25:46.006Z,47.4900
2022-08-16T01:26:33.608Z,47.6250
2022-08-16T01:26:34.552Z,47.5700
2022-08-16T01:26:36.923Z,47.6590
2022-08-16T01:26:48.097Z,47.4980
2022-08-16T01:27:03.998Z,47.3770
2022-08-16T01:27:17.487Z,47.5760
2022-08-16T01:27:28.961Z,47.5080
2022-08-16T01:27:40.187Z,47.3820
2022-08-16T01:27:51.781Z,47.3200
2022-08-16T01:28:03.675Z,47.3500
2022-08-16T01:28:19.803Z,47.3560
2022-08-16T01:28:34.701Z,47.5110
2022-08-16T01:28:48.554Z,47.5550
2022-08-16T01:28:59.730Z,47.4060
2022-08-16T01:29:10.781Z,47.3200
2022-08-16T01:29:22.492Z,47.3020
2022-08-16T01:29:58.460Z,47.6110
2022-08-16T01:29:58.515Z,47.5250
2022-08-16T01:30:19.327Z,47.5940
2022-08-16T01:30:27.556Z,47.6630
2022-08-16T01:30:40.118Z,47.5320
2022-08-16T01:30:55.753Z,47.6370
2022-08-16T01:31:06.841Z,47.4960
2022-08-16T01:31:18.472Z,47.4240
2022-08-16T01:31:30.928Z,47.3260
2022-08-16T01:31:43.418Z,47.4130
2022-08-16T01:31:54.659Z,47.3940
2022-08-16T01:32:06.158Z,47.3760
2022-08-16T01:32:31.882Z,47.5540
2022-08-16T01:32:37.919Z,47.6570
2022-08-16T01:32:59.621Z,47.5620
2022-08-16T01:33:14.519Z,47.6570
2022-08-16T01:33:24.031Z,47.7210
2022-08-16T01:33:35.909Z,47.5660
2022-08-16T01:33:47.218Z,47.5160
2022-08-16T01:34:01.044Z,47.5820
2022-08-16T01:34:22.997Z,47.4520
2022-08-16T01:34:29.143Z,47.6180
2022-08-16T01:34:47.438Z,47.5160
2022-08-16T01:34:57.175Z,47.6280
2022-08-16T01:35:08.390Z,47.5160
2022-08-16T01:35:25.452Z,47.6310
2022-08-16T01:35:37.020Z,47.5080
2022-08-16T01:35:52.821Z,47.3720
2022-08-16T01:36:09.323Z,47.5660
2022-08-16T01:36:22.180Z,47.6180
2022-08-16T01:36:37.907Z,47.6180
2022-08-16T01:36:58.149Z,47.3960
2022-08-16T01:37:06.092Z,47.5380
2022-08-16T01:37:17.240Z,47.4020
2022-08-16T01:37:28.315Z,47.3010
2022-08-16T01:37:45.491Z,47.4800
2022-08-16T01:38:02.441Z,47.5700
2022-08-16T01:38:19.653Z,47.5080
2022-08-16T01:38:30.954Z,47.5200
2022-08-16T01:38:49.285Z,47.3410
2022-08-16T01:38:59.082Z,47.4960
2022-08-16T01:39:11.808Z,47.3770
2022-08-16T01:39:24.710Z,47.3840
2022-08-16T01:39:37.703Z,47.3410
2022-08-16T01:39:49.709Z,47.3090
2022-08-16T01:40:00.807Z,47.2550
2022-08-16T01:40:11.851Z,47.2350
2022-08-16T01:40:22.991Z,47.2230
2022-08-16T01:40:34.087Z,47.2210
2022-08-16T01:40:45.162Z,47.1840
2022-08-16T01:40:57.281Z,47.2040
2022-08-16T01:41:19.272Z,47.3880
2022-08-16T01:41:31.419Z,47.4640
2022-08-16T01:41:44.198Z,47.3210
2022-08-16T01:41:55.415Z,47.2970
2022-08-16T01:42:12.173Z,47.2230
2022-08-16T01:42:24.022Z,47.4220
2022-08-16T01:42:36.502Z,47.4060
2022-08-16T01:42:48.020Z,47.2810
2022-08-16T01:43:01.581Z,47.3370
2022-08-16T01:43:12.645Z,47.2570
2022-08-16T01:43:23.794Z,47.2230
2022-08-16T01:43:34.939Z,47.1930
2022-08-16T01:43:45.996Z,47.1810
2022-08-16T01:44:02.959Z,47.3900
2022-08-16T01:44:14.350Z,47.3090
2022-08-16T01:44:38.291Z,47.4080
2022-08-16T01:44:46.710Z,47.4560
2022-08-16T01:45:03.678Z,47.5600
2022-08-16T01:45:15.141Z,47.4580
2022-08-16T01:45:40.390Z,47.5560
2022-08-16T01:45:47.835Z,47.5760
2022-08-16T01:46:31.179Z,47.6020
2022-08-16T01:46:37.908Z,47.6460
2022-08-16T01:46:40.631Z,47.6770
2022-08-16T01:46:52.181Z,47.6220
2022-08-16T01:47:03.347Z,47.4980
2022-08-16T01:47:15.790Z,47.5200
2022-08-16T01:47:29.430Z,47.5480
2022-08-16T01:47:49.219Z,47.6580
2022-08-16T01:48:01.216Z,47.6900
2022-08-16T01:48:20.017Z,47.5540
2022-08-16T01:48:29.382Z,47.6680
2022-08-16T01:48:40.540Z,47.5200
2022-08-16T01:48:57.504Z,47.6300
2022-08-16T01:49:08.698Z,47.5040
2022-08-16T01:49:19.922Z,47.4170
2022-08-16T01:49:45.513Z,47.3750
2022-08-16T01:50:42.164Z,47.7430
2022-08-16T01:50:42.574Z,47.7550
2022-08-16T01:50:42.964Z,47.7310
2022-08-16T01:50:43.165Z,47.6400
2022-08-16T01:51:08.323Z,47.7490
2022-08-16T01:51:17.108Z,47.7490
2022-08-16T01:51:28.634Z,47.7370
2022-08-16T01:51:39.803Z,47.4980
2022-08-16T01:51:50.931Z,47.4240
2022-08-16T01:52:02.079Z,47.3810
2022-08-16T01:52:28.105Z,47.5020
2022-08-16T01:52:32.654Z,47.6100
2022-08-16T01:52:46.513Z,47.5160
2022-08-16T01:52:58.016Z,47.5540
2022-08-16T01:53:10.053Z,47.4170
2022-08-16T01:53:22.176Z,47.4560
2022-08-16T01:53:33.391Z,47.3470
2022-08-16T01:53:44.624Z,47.3150
2022-08-16T01:54:01.573Z,47.5200
2022-08-16T01:54:16.006Z,47.4400
2022-08-16T01:54:30.697Z,47.4400
2022-08-16T01:54:42.322Z,47.5020
2022-08-16T01:54:55.599Z,47.4420
2022-08-16T01:55:06.665Z,47.3370
2022-08-16T01:55:17.835Z,47.2970
2022-08-16T01:55:35.591Z,47.2670
2022-08-16T01:55:53.719Z,47.4700
2022-08-16T01:56:02.799Z,47.5660
2022-08-16T01:56:23.217Z,47.4420
2022-08-16T01:56:31.267Z,47.5360
2022-08-16T01:56:42.485Z,47.3870
2022-08-16T01:56:54.468Z,47.3250
2022-08-16T01:57:07.605Z,47.3410
2022-08-16T01:57:22.984Z,47.4340
2022-08-16T01:57:36.124Z,47.3770
2022-08-16T01:57:53.730Z,47.2410
2022-08-16T01:58:04.125Z,47.4160
2022-08-16T01:58:15.266Z,47.2970
2022-08-16T01:58:32.374Z,47.4160
2022-08-16T01:58:47.984Z,47.3030
2022-08-16T01:58:59.625Z,47.4060
2022-08-16T01:59:15.805Z,47.2950
2022-08-16T01:59:28.230Z,47.4480
2022-08-16T01:59:39.316Z,47.3130
2022-08-16T01:59:50.880Z,47.2450
2022-08-16T02:00:05.911Z,47.3870
2022-08-16T02:00:21.597Z,47.4480
2022-08-16T02:00:38.582Z,47.4820
2022-08-16T02:00:50.380Z,47.3830
2022-08-16T02:01:02.168Z,47.2910
2022-08-16T02:01:13.356Z,47.2130
2022-08-16T02:01:28.832Z,47.4170
2022-08-16T02:01:40.623Z,47.3010
2022-08-16T02:02:00.018Z,47.2810
2022-08-16T02:02:27.208Z,47.4360
2022-08-16T02:02:28.612Z,47.5380
2022-08-16T02:02:42.483Z,47.4960
2022-08-16T02:02:54.051Z,47.4790
2022-08-16T02:03:05.179Z,47.3610
2022-08-16T02:03:16.340Z,47.3070
2022-08-16T02:03:33.304Z,47.5540
2022-08-16T02:03:44.426Z,47.4450
2022-08-16T02:04:10.765Z,47.5940
2022-08-16T02:04:49.303Z,47.7390
2022-08-16T02:04:49.558Z,47.6700
2022-08-16T02:04:54.522Z,47.7550
2022-08-16T02:05:05.994Z,47.6980
2022-08-16T02:05:17.300Z,47.5500
2022-08-16T02:05:30.392Z,47.5100
2022-08-16T02:05:46.658Z,47.5220
2022-08-16T02:05:58.937Z,47.6580
2022-08-16T02:06:10.091Z,47.5600
2022-08-16T02:06:33.716Z,47.4630
2022-08-16T02:06:38.715Z,47.6580
2022-08-16T02:06:50.585Z,47.5880
2022-08-16T02:07:02.385Z,47.5160
2022-08-16T02:07:14.249Z,47.4790
2022-08-16T02:07:25.480Z,47.4330
2022-08-16T02:07:36.619Z,47.4270
2022-08-16T02:07:47.735Z,47.3950
2022-08-16T02:08:03.298Z,47.6180
2022-08-16T02:08:32.859Z,47.5420
2022-08-16T02:08:33.631Z,47.6900
2022-08-16T02:08:45.038Z,47.6580
2022-08-16T02:09:01.996Z,47.7550
2022-08-16T02:09:17.763Z,47.7390
2022-08-16T02:09:33.747Z,47.6560
2022-08-16T02:09:57.522Z,47.7030
2022-08-16T02:10:02.403Z,47.7150
2022-08-16T02:10:14.212Z,47.5960
2022-08-16T02:10:28.978Z,47.6340
2022-08-16T02:10:40.830Z,47.4980
2022-08-16T02:10:52.403Z,47.4790
2022-08-16T02:11:03.484Z,47.3950
2022-08-16T02:11:15.608Z,47.4210
2022-08-16T02:11:26.975Z,47.3670
2022-08-16T02:11:48.246Z,47.5600
2022-08-16T02:12:50.044Z,47.6810
2022-08-16T02:12:50.273Z,47.7370
2022-08-16T02:12:50.570Z,47.6830
2022-08-16T02:12:55.676Z,47.7150
2022-08-16T02:13:07.745Z,47.6960
2022-08-16T02:13:19.421Z,47.5660
2022-08-16T02:13:36.522Z,47.6700
2022-08-16T02:13:54.799Z,47.7270
2022-08-16T02:14:06.007Z,47.6160
2022-08-16T02:14:26.463Z,47.6460
2022-08-16T02:14:38.414Z,47.6700
2022-08-16T02:14:49.539Z,47.4470
2022-08-16T02:15:02.231Z,47.4630
2022-08-16T02:15:13.375Z,47.3670
2022-08-16T02:15:25.918Z,47.3470
2022-08-16T02:15:40.405Z,47.3410
2022-08-16T02:15:54.513Z,47.5480
2022-08-16T02:16:06.073Z,47.4470
2022-08-16T02:16:23.043Z,47.5420
2022-08-16T02:16:35.163Z,47.4610
2022-08-16T02:16:46.706Z,47.3870
2022-08-16T02:16:57.808Z,47.3130
2022-08-16T02:17:08.873Z,47.2810
2022-08-16T02:17:19.919Z,47.2690
2022-08-16T02:17:31.186Z,47.2730
2022-08-16T02:17:42.318Z,47.2670
2022-08-16T02:17:53.760Z,47.2470
2022-08-16T02:18:04.792Z,47.2470
2022-08-16T02:18:18.509Z,47.2730
2022-08-16T02:18:29.940Z,47.3590
2022-08-16T02:18:41.046Z,47.2850
2022-08-16T02:18:53.822Z,47.3410
2022-08-16T02:19:16.503Z,47.3190
2022-08-16T02:19:23.072Z,47.5160
2022-08-16T02:19:58.840Z,47.5480
2022-08-16T02:19:59.286Z,47.4270
2022-08-16T02:20:11.830Z,47.6340
2022-08-16T02:20:26.459Z,47.5900
2022-08-16T02:20:39.518Z,47.6160
2022-08-16T02:20:53.885Z,47.5840
2022-08-16T02:21:04.982Z,47.4290
2022-08-16T02:21:16.053Z,47.3310
2022-08-16T02:21:31.447Z,47.2670
2022-08-16T02:22:08.568Z,47.5020
2022-08-16T02:22:09.096Z,47.5960
2022-08-16T02:22:33.478Z,47.6560
2022-08-16T02:22:46.829Z,47.6580
2022-08-16T02:22:51.431Z,47.6880
2022-08-16T02:23:06.510Z,47.7020
2022-08-16T02:23:18.163Z,47.5280
2022-08-16T02:23:29.604Z,47.4670
2022-08-16T02:23:40.845Z,47.4730
2022-08-16T02:23:53.360Z,47.5100
2022-08-16T02:24:31.638Z,47.5900
2022-08-16T02:24:31.707Z,47.6960
2022-08-16T02:24:45.893Z,47.7970
2022-08-16T02:24:57.933Z,47.8230
2022-08-16T02:25:10.096Z,47.6560
2022-08-16T02:25:21.373Z,47.5880
2022-08-16T02:25:52.296Z,47.7200
2022-08-16T02:25:52.634Z,47.5160
2022-08-16T02:26:04.933Z,47.7910
2022-08-16T02:26:18.756Z,47.5780
2022-08-16T02:26:34.269Z,47.6460
2022-08-16T02:26:45.803Z,47.7330
2022-08-16T02:27:01.330Z,47.7730
2022-08-16T02:27:12.388Z,47.5880
2022-08-16T02:27:23.558Z,47.5100
2022-08-16T02:27:34.604Z,47.4860
2022-08-16T02:27:50.776Z,47.4230
2022-08-16T02:28:02.824Z,47.6280
2022-08-16T02:28:16.582Z,47.5160
2022-08-16T02:28:28.581Z,47.5960
2022-08-16T02:28:45.291Z,47.5260
2022-08-16T02:28:58.350Z,47.6560
2022-08-16T02:29:12.998Z,47.5220
2022-08-16T02:29:24.414Z,47.6020
2022-08-16T02:29:41.990Z,47.6460
2022-08-16T02:30:05.208Z,47.5220
2022-08-16T02:30:10.127Z,47.6280
2022-08-16T02:30:37.590Z,47.7170
2022-08-16T02:30:50.051Z,47.7170
2022-08-16T02:31:01.039Z,47.7100
2022-08-16T02:31:12.122Z,47.5610
2022-08-16T02:32:02.856Z,47.6240
2022-08-16T02:32:03.434Z,47.6620
2022-08-16T02:32:04.069Z,47.4630
2022-08-16T02:32:50.649Z,47.7040
2022-08-16T02:32:50.708Z,47.6660
2022-08-16T02:32:50.709Z,47.7040
2022-08-16T02:33:03.421Z,47.5930
2022-08-16T02:33:15.299Z,47.4800
2022-08-16T02:33:43.479Z,47.4060
2022-08-16T02:33:50.198Z,47.5850
2022-08-16T02:34:00.576Z,47.6590
2022-08-16T02:34:17.531Z,47.6470
2022-08-16T02:34:32.714Z,47.4510
2022-08-16T02:34:45.739Z,47.5380
2022-08-16T02:35:01.759Z,47.5740
2022-08-16T02:35:12.921Z,47.3770
2022-08-16T02:35:27.407Z,47.4290
2022-08-16T02:35:49.735Z,47.3070
2022-08-16T02:35:58.357Z,47.4290
2022-08-16T02:36:14.555Z,47.5030
2022-08-16T02:36:42.433Z,47.4850
2022-08-16T02:36:49.803Z,47.5500
2022-08-16T02:37:02.316Z,47.5560
2022-08-16T02:37:13.386Z,47.3590
2022-08-16T02:37:52.123Z,47.4690
2022-08-16T02:37:52.485Z,47.5310
2022-08-16T02:38:08.993Z,47.5440
2022-08-16T02:38:20.442Z,47.5430
2022-08-16T02:38:32.334Z,47.3710
2022-08-16T02:38:43.414Z,47.2590
2022-08-16T02:38:54.629Z,47.2070
2022-08-16T02:39:05.679Z,47.1870
2022-08-16T02:39:16.974Z,47.1660
2022-08-16T02:39:30.259Z,47.1770
2022-08-16T02:39:41.601Z,47.3070
2022-08-16T02:39:54.120Z,47.2390
2022-08-16T02:40:05.520Z,47.3150
2022-08-16T02:40:18.011Z,47.3470
2022-08-16T02:40:29.084Z,47.2910
2022-08-16T02:40:40.238Z,47.2720
2022-08-16T02:40:54.369Z,47.3770
2022-08-16T02:41:09.745Z,47.3530
2022-08-16T02:41:22.931Z,47.5250
2022-08-16T02:41:34.182Z,47.4180
2022-08-16T02:41:53.262Z,47.5550
2022-08-16T02:42:04.747Z,47.5430
2022-08-16T02:42:19.293Z,47.3880
2022-08-16T02:42:30.682Z,47.4880
2022-08-16T02:42:41.843Z,47.3390
2022-08-16T02:42:53.354Z,47.2750
2022-08-16T02:43:04.638Z,47.2870
2022-08-16T02:43:15.802Z,47.2450
2022-08-16T02:43:27.428Z,47.2110
2022-08-16T02:43:38.852Z,47.2470
2022-08-16T02:43:51.739Z,47.2910
2022-08-16T02:44:02.801Z,47.2170
2022-08-16T02:44:14.096Z,47.1950
2022-08-16T02:44:28.371Z,47.3010
2022-08-16T02:44:39.713Z,47.2570
2022-08-16T02:44:53.552Z,47.3010
2022-08-16T02:45:05.499Z,47.2210
2022-08-16T02:45:16.563Z,47.1460
2022-08-16T02:45:28.190Z,47.0930
2022-08-16T02:45:39.268Z,47.0990